Antimony, UT

2:26 PM MST on December 17, 2014 (GMT -0700)
Bryce Canyon | Change Station
CLOSE
Current Station
Airport
Location: Bryce Canyon,
Elevation: 7585 ft
Nearby Weather Stations

Elev 7585 ft 37.71 °N, 112.15 °W | Updated 13 minutes ago

Snow
Snow
32 °F
Feels Like 26 °F
N
7
Wind Variable Wind from NW

Today
High -- | Low -- °F
--% Chance of Precip.
Yesterday
High -- | Low -- °F
Precip. -- in
7:38 AM 5:10 PM
Waning Crescent, 19% visible
Pressure 29.95 in
Visibility 5.0 miles
Clouds Few 1100 ft
Mostly Cloudy 3600 ft
Overcast 4300 ft
Windchill 26 °F
Dew Point 26 °F
Humidity 79%
Rainfall 0.18 in
Snow Depth Not available.
UV 1 out of 12
Pollen .30 out of 12
Air Quality Not available.
Flu Activity Not available.
SPECI KBCE 172113Z AUTO 31006KT 5SM -SN FEW011 BKN036 OVC043 00/M03 A2995 RMK AO2 P0000 T00001033

More Conditions Fewer Conditions

Pressure 29.95 in
Visibility 5.0 miles
Clouds Few 1100 ft
Mostly Cloudy 3600 ft
Overcast 4300 ft
Windchill 26 °F
Dew Point 26 °F
Humidity 79%
Rainfall 0.18 in
Snow Depth Not available.
UV 1 out of 12
Pollen .30 out of 12
Air Quality Not available.
Flu Activity Not available.
SPECI KBCE 172113Z AUTO 31006KT 5SM -SN FEW011 BKN036 OVC043 00/M03 A2995 RMK AO2 P0000 T00001033

More Conditions Fewer Conditions

10-Day Weather Forecast

Almanac

Astronomy

Dec. 17, 2014 Rise Set
Actual Time
Civil Twilight
Nautical Twilight
Astronomical Twilight
Moon
Length of Visible Light
Length of Day
Tomorrow will be .
, % of the Moon is Illuminated

Today's Extremes

State Highs State Lows

Community

WunderPhotos

Upload Photos

1,778,806 photos uploaded!

WunderBlogs® & News

Nearby

Air Quality

  Air Quality AQ Index Pollutant
Not available.

Snow Depth

Station Depth Elevation

Earthquake Activity

City Distance Mag. Time & Date
Minimum magnitude displayed is 2.5.

Coastal Water Temperatures

Place Temperature

Nearby Weather Stations